sensor_id;sensor_type;location;lat;lon;timestamp;pressure;altitude;pressure_sealevel;temperature;humidity
65872;BME280;52653;50.080;21.992;2022-12-16T00:00:49;98680.45;;;-1.52;89.27
65872;BME280;52653;50.080;21.992;2022-12-16T00:03:24;98676.01;;;-1.51;89.44
65872;BME280;52653;50.080;21.992;2022-12-16T00:05:56;98670.70;;;-1.51;89.53
65872;BME280;52653;50.080;21.992;2022-12-16T00:08:28;98673.64;;;-1.49;89.46
65872;BME280;52653;50.080;21.992;2022-12-16T00:11:02;98668.38;;;-1.48;89.53
65872;BME280;52653;50.080;21.992;2022-12-16T00:13:37;98677.04;;;-1.45;89.53
65872;BME280;52653;50.080;21.992;2022-12-16T00:16:12;98680.17;;;-1.43;89.53
65872;BME280;52653;50.080;21.992;2022-12-16T00:18:45;98683.78;;;-1.44;89.63
65872;BME280;52653;50.080;21.992;2022-12-16T00:21:17;98675.96;;;-1.47;89.66
65872;BME280;52653;50.080;21.992;2022-12-16T00:23:49;98672.23;;;-1.51;89.77
65872;BME280;52653;50.080;21.992;2022-12-16T00:26:22;98676.60;;;-1.53;89.84
65872;BME280;52653;50.080;21.992;2022-12-16T00:28:54;98673.63;;;-1.55;89.74
65872;BME280;52653;50.080;21.992;2022-12-16T00:31:27;98672.07;;;-1.55;89.85
65872;BME280;52653;50.080;21.992;2022-12-16T00:33:59;98674.94;;;-1.57;89.95
65872;BME280;52653;50.080;21.992;2022-12-16T00:36:31;98671.66;;;-1.57;89.97
65872;BME280;52653;50.080;21.992;2022-12-16T00:39:03;98667.25;;;-1.56;89.95
65872;BME280;52653;50.080;21.992;2022-12-16T00:41:36;98666.58;;;-1.55;90.06
65872;BME280;52653;50.080;21.992;2022-12-16T00:44:08;98669.88;;;-1.54;90.29
65872;BME280;52653;50.080;21.992;2022-12-16T00:46:40;98668.11;;;-1.51;90.49
65872;BME280;52653;50.080;21.992;2022-12-16T00:49:12;98672.20;;;-1.46;90.85
65872;BME280;52653;50.080;21.992;2022-12-16T00:51:44;98678.61;;;-1.44;90.89
65872;BME280;52653;50.080;21.992;2022-12-16T00:54:17;98679.54;;;-1.41;91.37
65872;BME280;52653;50.080;21.992;2022-12-16T00:56:49;98677.60;;;-1.38;91.41
65872;BME280;52653;50.080;21.992;2022-12-16T00:59:21;98668.65;;;-1.33;91.64
65872;BME280;52653;50.080;21.992;2022-12-16T01:01:53;98662.10;;;-1.27;91.89
65872;BME280;52653;50.080;21.992;2022-12-16T01:04:26;98664.89;;;-1.21;91.82
65872;BME280;52653;50.080;21.992;2022-12-16T01:06:58;98665.65;;;-1.18;91.84
65872;BME280;52653;50.080;21.992;2022-12-16T01:09:30;98668.70;;;-1.20;91.83
65872;BME280;52653;50.080;21.992;2022-12-16T01:12:04;98662.20;;;-1.18;91.95
65872;BME280;52653;50.080;21.992;2022-12-16T01:14:36;98657.20;;;-1.13;92.42
65872;BME280;52653;50.080;21.992;2022-12-16T01:17:09;98647.93;;;-1.12;92.18
65872;BME280;52653;50.080;21.992;2022-12-16T01:19:41;98651.05;;;-1.11;92.32
65872;BME280;52653;50.080;21.992;2022-12-16T01:22:13;98645.13;;;-1.08;92.63
65872;BME280;52653;50.080;21.992;2022-12-16T01:24:45;98647.66;;;-1.03;92.89
65872;BME280;52653;50.080;21.992;2022-12-16T01:27:17;98638.27;;;-1.01;92.71
65872;BME280;52653;50.080;21.992;2022-12-16T01:29:50;98637.77;;;-0.95;93.03
65872;BME280;52653;50.080;21.992;2022-12-16T01:32:25;98632.91;;;-0.90;92.84
65872;BME280;52653;50.080;21.992;2022-12-16T01:34:57;98625.59;;;-0.87;92.63
65872;BME280;52653;50.080;21.992;2022-12-16T01:37:30;98621.36;;;-0.84;92.72
65872;BME280;52653;50.080;21.992;2022-12-16T01:40:02;98623.73;;;-0.79;92.76
65872;BME280;52653;50.080;21.992;2022-12-16T01:42:34;98626.46;;;-0.75;92.78
65872;BME280;52653;50.080;21.992;2022-12-16T01:45:30;98626.39;;;-0.70;92.64
65872;BME280;52653;50.080;21.992;2022-12-16T01:48:10;98621.73;;;-0.65;92.68
65872;BME280;52653;50.080;21.992;2022-12-16T01:50:46;98616.15;;;-0.61;92.45
65872;BME280;52653;50.080;21.992;2022-12-16T01:53:20;98612.06;;;-0.59;92.50
65872;BME280;52653;50.080;21.992;2022-12-16T01:55:52;98605.59;;;-0.56;92.56
65872;BME280;52653;50.080;21.992;2022-12-16T01:58:29;98601.37;;;-0.52;92.49
65872;BME280;52653;50.080;21.992;2022-12-16T02:01:03;98599.70;;;-0.51;92.22
65872;BME280;52653;50.080;21.992;2022-12-16T02:03:37;98593.04;;;-0.50;92.29
65872;BME280;52653;50.080;21.992;2022-12-16T02:06:10;98592.20;;;-0.48;92.15
65872;BME280;52653;50.080;21.992;2022-12-16T02:08:42;98591.04;;;-0.46;92.28
65872;BME280;52653;50.080;21.992;2022-12-16T02:11:47;98589.88;;;-0.45;92.31
65872;BME280;52653;50.080;21.992;2022-12-16T02:14:38;98593.07;;;-0.40;92.46
65872;BME280;52653;50.080;21.992;2022-12-16T02:17:20;98593.31;;;-0.38;92.39
65872;BME280;52653;50.080;21.992;2022-12-16T02:20:27;98586.11;;;-0.37;92.30
65872;BME280;52653;50.080;21.992;2022-12-16T02:23:22;98579.86;;;-0.38;92.13
65872;BME280;52653;50.080;21.992;2022-12-16T02:26:20;98580.91;;;-0.38;92.25
65872;BME280;52653;50.080;21.992;2022-12-16T02:29:27;98581.12;;;-0.37;92.14
65872;BME280;52653;50.080;21.992;2022-12-16T02:32:09;98577.09;;;-0.33;92.41
65872;BME280;52653;50.080;21.992;2022-12-16T02:34:50;98571.64;;;-0.30;92.26
65872;BME280;52653;50.080;21.992;2022-12-16T02:37:34;98567.80;;;-0.25;92.46
65872;BME280;52653;50.080;21.992;2022-12-16T02:40:13;98565.02;;;-0.19;92.47
65872;BME280;52653;50.080;21.992;2022-12-16T02:42:46;98558.77;;;-0.14;92.52
65872;BME280;52653;50.080;21.992;2022-12-16T02:45:24;98549.23;;;-0.09;92.50
65872;BME280;52653;50.080;21.992;2022-12-16T02:47:58;98550.30;;;-0.08;92.19
65872;BME280;52653;50.080;21.992;2022-12-16T02:50:34;98546.52;;;-0.08;92.11
65872;BME280;52653;50.080;21.992;2022-12-16T02:53:09;98543.61;;;-0.06;92.21
65872;BME280;52653;50.080;21.992;2022-12-16T02:55:51;98543.13;;;-0.05;92.02
65872;BME280;52653;50.080;21.992;2022-12-16T02:58:30;98538.00;;;-0.03;92.34
65872;BME280;52653;50.080;21.992;2022-12-16T03:01:08;98536.37;;;0.01;92.23
65872;BME280;52653;50.080;21.992;2022-12-16T03:03:48;98531.97;;;0.05;92.59
65872;BME280;52653;50.080;21.992;2022-12-16T03:06:22;98525.66;;;0.08;92.45
65872;BME280;52653;50.080;21.992;2022-12-16T03:08:59;98526.21;;;0.10;92.36
65872;BME280;52653;50.080;21.992;2022-12-16T03:11:34;98523.46;;;0.10;92.20
65872;BME280;52653;50.080;21.992;2022-12-16T03:14:11;98517.30;;;0.12;92.23
65872;BME280;52653;50.080;21.992;2022-12-16T03:16:47;98513.05;;;0.14;92.46
65872;BME280;52653;50.080;21.992;2022-12-16T03:19:21;98509.27;;;0.14;92.08
65872;BME280;52653;50.080;21.992;2022-12-16T03:22:00;98504.84;;;0.17;92.29
65872;BME280;52653;50.080;21.992;2022-12-16T03:24:35;98501.27;;;0.19;92.23
65872;BME280;52653;50.080;21.992;2022-12-16T03:27:12;98486.48;;;0.22;92.18
65872;BME280;52653;50.080;21.992;2022-12-16T03:29:52;98480.87;;;0.25;92.28
65872;BME280;52653;50.080;21.992;2022-12-16T03:32:33;98473.87;;;0.28;92.23
65872;BME280;52653;50.080;21.992;2022-12-16T03:35:11;98474.08;;;0.30;92.33
65872;BME280;52653;50.080;21.992;2022-12-16T03:37:47;98470.81;;;0.31;92.07
65872;BME280;52653;50.080;21.992;2022-12-16T03:40:21;98467.73;;;0.32;92.04
65872;BME280;52653;50.080;21.992;2022-12-16T03:42:55;98466.04;;;0.34;91.95
65872;BME280;52653;50.080;21.992;2022-12-16T03:45:29;98462.97;;;0.36;91.98
65872;BME280;52653;50.080;21.992;2022-12-16T03:48:05;98462.80;;;0.36;91.92
65872;BME280;52653;50.080;21.992;2022-12-16T03:50:38;98457.85;;;0.38;91.96
65872;BME280;52653;50.080;21.992;2022-12-16T03:53:11;98457.51;;;0.38;91.74
65872;BME280;52653;50.080;21.992;2022-12-16T03:55:44;98452.29;;;0.36;91.93
65872;BME280;52653;50.080;21.992;2022-12-16T03:58:16;98446.26;;;0.36;91.89
65872;BME280;52653;50.080;21.992;2022-12-16T04:00:48;98442.31;;;0.37;92.01
65872;BME280;52653;50.080;21.992;2022-12-16T04:03:20;98440.80;;;0.38;92.02
65872;BME280;52653;50.080;21.992;2022-12-16T04:05:53;98438.14;;;0.36;91.75
65872;BME280;52653;50.080;21.992;2022-12-16T04:08:26;98432.45;;;0.36;92.04
65872;BME280;52653;50.080;21.992;2022-12-16T04:10:58;98427.11;;;0.37;92.05
65872;BME280;52653;50.080;21.992;2022-12-16T04:13:48;98419.95;;;0.39;92.29
65872;BME280;52653;50.080;21.992;2022-12-16T04:16:38;98416.55;;;0.42;92.18
65872;BME280;52653;50.080;21.992;2022-12-16T04:19:31;98406.91;;;0.43;92.27
65872;BME280;52653;50.080;21.992;2022-12-16T04:22:25;98398.81;;;0.44;92.22
65872;BME280;52653;50.080;21.992;2022-12-16T04:25:18;98389.33;;;0.44;92.22
65872;BME280;52653;50.080;21.992;2022-12-16T04:27:53;98386.06;;;0.45;92.23
65872;BME280;52653;50.080;21.992;2022-12-16T04:30:29;98381.58;;;0.44;92.31
65872;BME280;52653;50.080;21.992;2022-12-16T04:33:06;98378.82;;;0.45;92.20
65872;BME280;52653;50.080;21.992;2022-12-16T04:36:01;98375.89;;;0.45;92.13
65872;BME280;52653;50.080;21.992;2022-12-16T04:38:50;98378.11;;;0.43;92.15
65872;BME280;52653;50.080;21.992;2022-12-16T04:41:40;98370.50;;;0.42;92.24
65872;BME280;52653;50.080;21.992;2022-12-16T04:44:30;98364.98;;;0.42;92.24
65872;BME280;52653;50.080;21.992;2022-12-16T04:47:20;98355.98;;;0.41;92.37
65872;BME280;52653;50.080;21.992;2022-12-16T04:50:10;98359.05;;;0.39;92.52
65872;BME280;52653;50.080;21.992;2022-12-16T04:53:00;98353.95;;;0.35;92.47
65872;BME280;52653;50.080;21.992;2022-12-16T04:55:50;98348.58;;;0.33;92.60
65872;BME280;52653;50.080;21.992;2022-12-16T04:58:40;98346.34;;;0.33;92.81
65872;BME280;52653;50.080;21.992;2022-12-16T05:01:30;98340.88;;;0.36;92.95
65872;BME280;52653;50.080;21.992;2022-12-16T05:04:21;98336.86;;;0.42;93.22
65872;BME280;52653;50.080;21.992;2022-12-16T05:07:13;98335.05;;;0.48;93.04
65872;BME280;52653;50.080;21.992;2022-12-16T05:10:09;98322.55;;;0.52;93.02
65872;BME280;52653;50.080;21.992;2022-12-16T05:12:59;98313.44;;;0.53;92.87
65872;BME280;52653;50.080;21.992;2022-12-16T05:15:48;98303.97;;;0.55;92.79
65872;BME280;52653;50.080;21.992;2022-12-16T05:18:50;98295.70;;;0.56;92.91
65872;BME280;52653;50.080;21.992;2022-12-16T05:21:40;98292.65;;;0.59;92.94
65872;BME280;52653;50.080;21.992;2022-12-16T05:24:30;98300.45;;;0.63;92.83
65872;BME280;52653;50.080;21.992;2022-12-16T05:27:22;98310.53;;;0.65;92.96
65872;BME280;52653;50.080;21.992;2022-12-16T05:30:13;98307.64;;;0.68;92.70
65872;BME280;52653;50.080;21.992;2022-12-16T05:33:03;98287.34;;;0.72;92.84
65872;BME280;52653;50.080;21.992;2022-12-16T05:35:53;98274.80;;;0.76;92.85
65872;BME280;52653;50.080;21.992;2022-12-16T05:38:43;98275.21;;;0.80;92.84
65872;BME280;52653;50.080;21.992;2022-12-16T05:41:39;98273.04;;;0.85;92.74
65872;BME280;52653;50.080;21.992;2022-12-16T05:44:34;98265.99;;;0.87;92.63
65872;BME280;52653;50.080;21.992;2022-12-16T05:47:24;98258.63;;;0.89;92.57
65872;BME280;52653;50.080;21.992;2022-12-16T05:50:14;98257.20;;;0.87;92.72
65872;BME280;52653;50.080;21.992;2022-12-16T05:53:11;98269.41;;;0.84;92.61
65872;BME280;52653;50.080;21.992;2022-12-16T05:56:01;98269.20;;;0.81;92.80
65872;BME280;52653;50.080;21.992;2022-12-16T05:58:51;98271.58;;;0.78;92.52
65872;BME280;52653;50.080;21.992;2022-12-16T06:01:41;98269.66;;;0.77;92.65
65872;BME280;52653;50.080;21.992;2022-12-16T06:04:43;98286.70;;;0.75;92.52
65872;BME280;52653;50.080;21.992;2022-12-16T06:07:33;98285.48;;;0.75;92.97
65872;BME280;52653;50.080;21.992;2022-12-16T06:10:35;98273.31;;;0.79;93.03
65872;BME280;52653;50.080;21.992;2022-12-16T06:13:24;98276.00;;;0.87;93.19
65872;BME280;52653;50.080;21.992;2022-12-16T06:16:14;98280.05;;;0.91;92.95
65872;BME280;52653;50.080;21.992;2022-12-16T06:19:04;98281.80;;;0.93;92.69
65872;BME280;52653;50.080;21.992;2022-12-16T06:21:54;98275.13;;;0.97;92.72
65872;BME280;52653;50.080;21.992;2022-12-16T06:24:43;98276.40;;;1.01;92.68
65872;BME280;52653;50.080;21.992;2022-12-16T06:27:33;98274.70;;;1.02;92.73
65872;BME280;52653;50.080;21.992;2022-12-16T06:30:23;98271.43;;;1.03;93.04
65872;BME280;52653;50.080;21.992;2022-12-16T06:33:13;98270.06;;;1.03;93.06
65872;BME280;52653;50.080;21.992;2022-12-16T06:36:04;98264.48;;;1.01;92.94
65872;BME280;52653;50.080;21.992;2022-12-16T06:38:54;98262.10;;;1.02;92.86
65872;BME280;52653;50.080;21.992;2022-12-16T06:41:44;98264.01;;;1.03;92.50
65872;BME280;52653;50.080;21.992;2022-12-16T06:44:34;98256.79;;;1.05;92.57
65872;BME280;52653;50.080;21.992;2022-12-16T06:47:23;98252.03;;;1.11;92.70
65872;BME280;52653;50.080;21.992;2022-12-16T06:50:13;98244.02;;;1.18;92.70
65872;BME280;52653;50.080;21.992;2022-12-16T06:53:02;98243.55;;;1.22;92.35
65872;BME280;52653;50.080;21.992;2022-12-16T06:55:52;98245.52;;;1.27;92.44
65872;BME280;52653;50.080;21.992;2022-12-16T06:58:42;98246.23;;;1.28;92.01
65872;BME280;52653;50.080;21.992;2022-12-16T07:01:32;98236.38;;;1.28;92.30
65872;BME280;52653;50.080;21.992;2022-12-16T07:04:22;98227.58;;;1.28;92.27
65872;BME280;52653;50.080;21.992;2022-12-16T07:07:12;98220.87;;;1.31;92.19
65872;BME280;52653;50.080;21.992;2022-12-16T07:10:02;98213.33;;;1.36;91.99
65872;BME280;52653;50.080;21.992;2022-12-16T07:12:52;98218.09;;;1.43;92.01
65872;BME280;52653;50.080;21.992;2022-12-16T07:15:45;98223.04;;;1.53;91.79
65872;BME280;52653;50.080;21.992;2022-12-16T07:18:35;98226.09;;;1.62;91.78
65872;BME280;52653;50.080;21.992;2022-12-16T07:21:25;98220.84;;;1.71;91.49
65872;BME280;52653;50.080;21.992;2022-12-16T07:24:14;98220.94;;;1.80;91.09
65872;BME280;52653;50.080;21.992;2022-12-16T07:27:04;98222.73;;;1.86;91.10
65872;BME280;52653;50.080;21.992;2022-12-16T07:29:54;98217.39;;;1.90;90.96
65872;BME280;52653;50.080;21.992;2022-12-16T07:32:44;98222.75;;;1.89;90.48
65872;BME280;52653;50.080;21.992;2022-12-16T07:35:34;98220.83;;;1.86;90.64
65872;BME280;52653;50.080;21.992;2022-12-16T07:38:24;98215.62;;;1.84;90.62
65872;BME280;52653;50.080;21.992;2022-12-16T07:41:13;98208.02;;;1.83;90.51
65872;BME280;52653;50.080;21.992;2022-12-16T07:44:06;98212.31;;;1.81;90.01
65872;BME280;52653;50.080;21.992;2022-12-16T07:46:56;98213.88;;;1.82;90.11
65872;BME280;52653;50.080;21.992;2022-12-16T07:49:46;98221.85;;;1.85;90.14
65872;BME280;52653;50.080;21.992;2022-12-16T07:52:36;98221.67;;;1.84;89.68
65872;BME280;52653;50.080;21.992;2022-12-16T07:55:38;98214.08;;;1.85;90.12
65872;BME280;52653;50.080;21.992;2022-12-16T07:58:27;98207.88;;;1.88;90.36
65872;BME280;52653;50.080;21.992;2022-12-16T08:01:18;98200.27;;;1.89;90.48
65872;BME280;52653;50.080;21.992;2022-12-16T08:04:07;98194.39;;;1.88;90.43
65872;BME280;52653;50.080;21.992;2022-12-16T08:06:57;98189.88;;;1.87;90.28
65872;BME280;52653;50.080;21.992;2022-12-16T08:09:47;98190.23;;;1.87;90.28
65872;BME280;52653;50.080;21.992;2022-12-16T08:12:45;98188.52;;;1.88;90.20
65872;BME280;52653;50.080;21.992;2022-12-16T08:15:35;98188.16;;;1.88;89.99
65872;BME280;52653;50.080;21.992;2022-12-16T08:18:25;98189.20;;;1.89;90.27
65872;BME280;52653;50.080;21.992;2022-12-16T08:21:15;98189.03;;;1.89;90.08
65872;BME280;52653;50.080;21.992;2022-12-16T08:24:06;98186.83;;;1.91;90.23
65872;BME280;52653;50.080;21.992;2022-12-16T08:26:56;98183.55;;;1.91;90.13
65872;BME280;52653;50.080;21.992;2022-12-16T08:29:46;98182.11;;;1.88;90.12
65872;BME280;52653;50.080;21.992;2022-12-16T08:32:35;98175.52;;;1.85;90.37
65872;BME280;52653;50.080;21.992;2022-12-16T08:35:31;98166.34;;;1.82;90.46
65872;BME280;52653;50.080;21.992;2022-12-16T08:38:22;98161.95;;;1.77;90.39
65872;BME280;52653;50.080;21.992;2022-12-16T08:41:12;98168.33;;;1.75;90.28
65872;BME280;52653;50.080;21.992;2022-12-16T08:44:02;98175.44;;;1.77;90.56
65872;BME280;52653;50.080;21.992;2022-12-16T08:46:52;98169.77;;;1.79;90.42
65872;BME280;52653;50.080;21.992;2022-12-16T08:49:42;98172.20;;;1.81;90.52
65872;BME280;52653;50.080;21.992;2022-12-16T08:52:32;98175.67;;;1.83;90.51
65872;BME280;52653;50.080;21.992;2022-12-16T08:55:22;98173.30;;;1.89;90.54
65872;BME280;52653;50.080;21.992;2022-12-16T08:58:12;98171.14;;;1.96;90.53
65872;BME280;52653;50.080;21.992;2022-12-16T09:01:16;98163.05;;;2.02;90.64
65872;BME280;52653;50.080;21.992;2022-12-16T09:04:06;98160.35;;;2.06;90.49
65872;BME280;52653;50.080;21.992;2022-12-16T09:06:56;98158.63;;;2.08;90.36
65872;BME280;52653;50.080;21.992;2022-12-16T09:09:46;98150.46;;;2.04;90.23
65872;BME280;52653;50.080;21.992;2022-12-16T09:12:36;98147.47;;;1.99;90.10
65872;BME280;52653;50.080;21.992;2022-12-16T09:15:26;98150.03;;;1.94;89.94
65872;BME280;52653;50.080;21.992;2022-12-16T09:18:16;98139.80;;;1.91;90.09
65872;BME280;52653;50.080;21.992;2022-12-16T09:21:06;98140.27;;;1.88;89.99
65872;BME280;52653;50.080;21.992;2022-12-16T09:24:02;98125.91;;;1.86;90.20
65872;BME280;52653;50.080;21.992;2022-12-16T09:26:52;98119.35;;;1.88;90.38
65872;BME280;52653;50.080;21.992;2022-12-16T09:29:42;98126.27;;;1.89;90.42
65872;BME280;52653;50.080;21.992;2022-12-16T09:32:28;98133.71;;;1.89;90.44
65872;BME280;52653;50.080;21.992;2022-12-16T09:35:18;98133.38;;;1.89;90.39
65872;BME280;52653;50.080;21.992;2022-12-16T09:38:08;98125.04;;;1.85;90.39
65872;BME280;52653;50.080;21.992;2022-12-16T09:40:59;98122.74;;;1.79;90.49
65872;BME280;52653;50.080;21.992;2022-12-16T09:44:10;98109.38;;;1.73;90.78
65872;BME280;52653;50.080;21.992;2022-12-16T09:47:05;98113.49;;;1.69;91.06
65872;BME280;52653;50.080;21.992;2022-12-16T09:50:03;98104.28;;;1.64;91.10
65872;BME280;52653;50.080;21.992;2022-12-16T09:52:59;98094.92;;;1.63;91.12
65872;BME280;52653;50.080;21.992;2022-12-16T09:55:53;98089.05;;;1.62;91.32
65872;BME280;52653;50.080;21.992;2022-12-16T09:59:00;98082.83;;;1.63;91.31
65872;BME280;52653;50.080;21.992;2022-12-16T10:01:51;98087.36;;;1.65;91.37
65872;BME280;52653;50.080;21.992;2022-12-16T10:04:43;98082.71;;;1.67;91.38
65872;BME280;52653;50.080;21.992;2022-12-16T10:07:37;98077.71;;;1.69;91.41
65872;BME280;52653;50.080;21.992;2022-12-16T10:10:34;98073.41;;;1.70;91.36
65872;BME280;52653;50.080;21.992;2022-12-16T10:13:32;98069.79;;;1.73;91.39
65872;BME280;52653;50.080;21.992;2022-12-16T10:16:31;98069.98;;;1.76;91.21
65872;BME280;52653;50.080;21.992;2022-12-16T10:19:32;98068.81;;;1.78;91.17
65872;BME280;52653;50.080;21.992;2022-12-16T10:22:31;98068.48;;;1.80;91.11
65872;BME280;52653;50.080;21.992;2022-12-16T10:25:27;98068.33;;;1.83;91.44
65872;BME280;52653;50.080;21.992;2022-12-16T10:28:18;98072.11;;;1.80;90.70
65872;BME280;52653;50.080;21.992;2022-12-16T10:31:14;98064.61;;;1.74;90.84
65872;BME280;52653;50.080;21.992;2022-12-16T10:34:10;98065.64;;;1.71;91.18
65872;BME280;52653;50.080;21.992;2022-12-16T10:37:00;98066.08;;;1.65;91.21
65872;BME280;52653;50.080;21.992;2022-12-16T10:39:56;98064.16;;;1.64;91.58
65872;BME280;52653;50.080;21.992;2022-12-16T10:42:51;98062.13;;;1.65;91.57
65872;BME280;52653;50.080;21.992;2022-12-16T10:45:48;98061.64;;;1.68;91.82
65872;BME280;52653;50.080;21.992;2022-12-16T10:48:38;98062.86;;;1.71;91.74
65872;BME280;52653;50.080;21.992;2022-12-16T10:51:29;98062.20;;;1.76;91.79
65872;BME280;52653;50.080;21.992;2022-12-16T10:54:29;98067.63;;;1.80;91.67
65872;BME280;52653;50.080;21.992;2022-12-16T10:57:29;98066.94;;;1.83;91.86
65872;BME280;52653;50.080;21.992;2022-12-16T11:00:40;98071.13;;;1.88;91.77
65872;BME280;52653;50.080;21.992;2022-12-16T11:03:29;98067.20;;;1.92;91.81
65872;BME280;52653;50.080;21.992;2022-12-16T11:06:21;98051.14;;;1.95;91.79
65872;BME280;52653;50.080;21.992;2022-12-16T11:09:21;98048.04;;;1.96;91.54
65872;BME280;52653;50.080;21.992;2022-12-16T11:12:29;98055.48;;;1.99;91.56
65872;BME280;52653;50.080;21.992;2022-12-16T11:15:25;98059.47;;;2.00;91.36
65872;BME280;52653;50.080;21.992;2022-12-16T11:18:17;98056.88;;;2.01;91.44
65872;BME280;52653;50.080;21.992;2022-12-16T11:21:12;98069.20;;;2.05;91.61
65872;BME280;52653;50.080;21.992;2022-12-16T11:24:16;98063.16;;;2.05;91.22
65872;BME280;52653;50.080;21.992;2022-12-16T11:27:16;98064.70;;;2.06;91.08
65872;BME280;52653;50.080;21.992;2022-12-16T11:30:21;98060.40;;;2.09;91.45
65872;BME280;52653;50.080;21.992;2022-12-16T11:33:16;98064.23;;;2.14;91.38
65872;BME280;52653;50.080;21.992;2022-12-16T11:36:12;98059.39;;;2.15;91.36
65872;BME280;52653;50.080;21.992;2022-12-16T11:39:03;98060.27;;;2.15;91.55
65872;BME280;52653;50.080;21.992;2022-12-16T11:41:54;98059.73;;;2.14;91.53
65872;BME280;52653;50.080;21.992;2022-12-16T11:44:46;98056.10;;;2.13;91.18
65872;BME280;52653;50.080;21.992;2022-12-16T11:47:40;98055.59;;;2.14;91.39
65872;BME280;52653;50.080;21.992;2022-12-16T11:50:35;98060.10;;;2.16;91.27
65872;BME280;52653;50.080;21.992;2022-12-16T11:53:33;98059.79;;;2.19;91.28
65872;BME280;52653;50.080;21.992;2022-12-16T11:56:29;98070.00;;;2.21;90.99
65872;BME280;52653;50.080;21.992;2022-12-16T11:59:39;98062.56;;;2.19;90.89
65872;BME280;52653;50.080;21.992;2022-12-16T12:02:33;98062.91;;;2.20;91.14
65872;BME280;52653;50.080;21.992;2022-12-16T12:05:29;98067.25;;;2.25;91.45
65872;BME280;52653;50.080;21.992;2022-12-16T12:08:27;98061.77;;;2.31;91.41
65872;BME280;52653;50.080;21.992;2022-12-16T12:11:25;98062.83;;;2.36;91.48
65872;BME280;52653;50.080;21.992;2022-12-16T12:14:26;98065.14;;;2.44;91.49
65872;BME280;52653;50.080;21.992;2022-12-16T12:17:27;98071.60;;;2.54;91.78
65872;BME280;52653;50.080;21.992;2022-12-16T12:20:33;98073.53;;;2.61;91.25
65872;BME280;52653;50.080;21.992;2022-12-16T12:23:34;98072.34;;;2.66;91.00
65872;BME280;52653;50.080;21.992;2022-12-16T12:26:29;98072.37;;;2.70;90.97
65872;BME280;52653;50.080;21.992;2022-12-16T12:29:28;98073.42;;;2.70;90.71
65872;BME280;52653;50.080;21.992;2022-12-16T12:32:26;98070.46;;;2.68;90.73
65872;BME280;52653;50.080;21.992;2022-12-16T12:35:27;98065.58;;;2.64;90.55
65872;BME280;52653;50.080;21.992;2022-12-16T12:38:36;98077.35;;;2.64;90.62
65872;BME280;52653;50.080;21.992;2022-12-16T12:41:40;98078.40;;;2.66;90.72
65872;BME280;52653;50.080;21.992;2022-12-16T12:44:45;98077.23;;;2.72;90.45
65872;BME280;52653;50.080;21.992;2022-12-16T12:47:45;98082.27;;;2.78;90.47
65872;BME280;52653;50.080;21.992;2022-12-16T12:50:41;98085.59;;;2.81;90.27
65872;BME280;52653;50.080;21.992;2022-12-16T12:53:39;98090.96;;;2.82;90.21
65872;BME280;52653;50.080;21.992;2022-12-16T12:56:48;98090.27;;;2.86;90.38
65872;BME280;52653;50.080;21.992;2022-12-16T12:59:46;98082.33;;;2.91;90.13
65872;BME280;52653;50.080;21.992;2022-12-16T13:02:47;98090.64;;;2.89;89.66
65872;BME280;52653;50.080;21.992;2022-12-16T13:05:53;98097.58;;;2.92;90.05
65872;BME280;52653;50.080;21.992;2022-12-16T13:08:54;98098.64;;;2.97;90.15
65872;BME280;52653;50.080;21.992;2022-12-16T13:15:09;98114.59;;;3.03;89.94
65872;BME280;52653;50.080;21.992;2022-12-16T13:18:24;98113.92;;;3.05;89.91
65872;BME280;52653;50.080;21.992;2022-12-16T13:21:47;98113.77;;;3.09;89.90
65872;BME280;52653;50.080;21.992;2022-12-16T13:24:50;98114.98;;;3.09;89.46
65872;BME280;52653;50.080;21.992;2022-12-16T13:27:55;98119.80;;;3.03;89.20
65872;BME280;52653;50.080;21.992;2022-12-16T13:31:01;98118.21;;;2.96;89.32
65872;BME280;52653;50.080;21.992;2022-12-16T13:33:58;98123.55;;;2.90;89.44
65872;BME280;52653;50.080;21.992;2022-12-16T13:36:55;98134.59;;;2.83;89.07
65872;BME280;52653;50.080;21.992;2022-12-16T13:40:05;98144.75;;;2.74;88.80
65872;BME280;52653;50.080;21.992;2022-12-16T13:43:43;98146.98;;;2.68;88.53
65872;BME280;52653;50.080;21.992;2022-12-16T13:46:44;98148.50;;;2.66;88.93
65872;BME280;52653;50.080;21.992;2022-12-16T13:49:46;98156.84;;;2.68;88.82
65872;BME280;52653;50.080;21.992;2022-12-16T13:52:45;98163.23;;;2.67;88.84
65872;BME280;52653;50.080;21.992;2022-12-16T13:55:40;98163.27;;;2.71;88.86
65872;BME280;52653;50.080;21.992;2022-12-16T13:58:37;98169.34;;;2.74;88.99
65872;BME280;52653;50.080;21.992;2022-12-16T14:01:35;98178.05;;;2.82;89.64
65872;BME280;52653;50.080;21.992;2022-12-16T14:04:27;98183.95;;;2.82;89.09
65872;BME280;52653;50.080;21.992;2022-12-16T14:07:19;98192.04;;;2.77;88.86
65872;BME280;52653;50.080;21.992;2022-12-16T14:10:24;98192.30;;;2.66;88.67
65872;BME280;52653;50.080;21.992;2022-12-16T14:13:18;98184.92;;;2.50;88.29
65872;BME280;52653;50.080;21.992;2022-12-16T14:16:12;98189.67;;;2.38;88.45
65872;BME280;52653;50.080;21.992;2022-12-16T14:19:17;98201.86;;;2.29;88.88
65872;BME280;52653;50.080;21.992;2022-12-16T14:22:17;98208.58;;;2.24;89.43
65872;BME280;52653;50.080;21.992;2022-12-16T14:25:15;98211.31;;;2.20;89.33
65872;BME280;52653;50.080;21.992;2022-12-16T14:28:20;98215.91;;;2.13;89.40
65872;BME280;52653;50.080;21.992;2022-12-16T14:31:15;98213.26;;;2.05;89.60
65872;BME280;52653;50.080;21.992;2022-12-16T14:34:13;98218.20;;;2.00;89.92
65872;BME280;52653;50.080;21.992;2022-12-16T14:37:13;98219.54;;;1.94;90.08
65872;BME280;52653;50.080;21.992;2022-12-16T14:40:04;98233.72;;;1.95;90.34
65872;BME280;52653;50.080;21.992;2022-12-16T14:43:12;98235.91;;;1.91;90.07
65872;BME280;52653;50.080;21.992;2022-12-16T14:46:03;98244.70;;;1.90;90.59
65872;BME280;52653;50.080;21.992;2022-12-16T14:48:52;98245.55;;;1.86;90.63
65872;BME280;52653;50.080;21.992;2022-12-16T14:51:46;98247.90;;;1.79;90.64
65872;BME280;52653;50.080;21.992;2022-12-16T14:54:38;98248.61;;;1.81;91.22